.
WxDataArchive / Data Records for 2015-11-27
2015-11-26 November 2015 2015-11-28

Data Records for Friday, 27 November 2015

Time	Temp	Chill	HIndex	Humid	Dewpt	 Wind 	HiWind	WindDir	Rain 	Barom
-----	----	-----	------	-----	-----	------	------	-------	-----	-----
00:00	58.7	58.7	58.7	59	44.4	1	3	45	0.00	30.234 
00:05	58.6	58.6	58.6	60	44.8	1	5	292	0.00	30.234 
00:10	58.6	58.6	58.6	60	44.8	1	4	68	0.00	30.234 
00:15	58.4	58.4	58.4	60	44.6	1	4	270	0.00	30.228 
00:20	58.4	58.4	58.4	60	44.6	2	6	90	0.00	30.228 
00:25	58.4	58.4	58.4	60	44.6	2	6	45	0.00	30.228 
00:30	58.4	58.4	58.4	60	44.6	1	5	112	0.00	30.231 
00:35	58.6	58.6	58.6	60	44.8	1	6	45	0.00	30.231 
00:40	58.6	58.6	58.6	60	44.8	1	5	68	0.00	30.231 
00:45	58.4	58.4	58.4	60	44.6	1	3	248	0.00	30.229 
00:50	58.4	58.4	58.4	61	45.0	1	4	248	0.00	30.229 
00:55	58.4	58.4	58.4	61	45.0	1	3	90	0.00	30.229 
01:00	58.4	58.4	58.4	61	45.0	1	4	68	0.00	30.231 
01:05	58.4	58.4	58.4	61	45.0	1	4	22	0.00	30.231 
01:10	58.4	58.4	58.4	61	45.0	1	5	22	0.00	30.231 
01:15	58.4	58.4	58.4	61	45.0	0	3	292	0.00	30.231 
01:20	58.4	58.4	58.4	61	45.0	1	4	225	0.00	30.231 
01:25	58.6	58.6	58.6	61	45.2	1	3	22	0.00	30.231 
01:30	58.6	58.6	58.6	61	45.2	1	3	248	0.00	30.227 
01:35	58.7	58.7	58.7	61	45.3	1	5	22	0.00	30.227 
01:40	58.9	58.9	58.9	60	45.0	1	6	292	0.00	30.227 
01:45	59.0	59.0	59.0	60	45.1	0	3	202	0.00	30.225 
01:50	59.0	59.0	59.0	60	45.1	1	4	248	0.00	30.225 
01:55	59.2	59.2	59.2	60	45.3	1	3	292	0.00	30.225 
02:00	59.3	59.3	59.3	60	45.4	1	5	292	0.00	30.219 
02:05	59.3	59.3	59.3	60	45.4	1	4	248	0.00	30.219 
02:10	59.3	59.3	59.3	60	45.4	0	3	248	0.00	30.219 
02:15	59.3	59.3	59.3	60	45.4	1	5	248	0.00	30.222 
02:20	59.3	59.3	59.3	60	45.4	1	5	248	0.00	30.222 
02:25	59.5	59.5	59.5	60	45.6	1	5	248	0.00	30.222 
02:30	59.5	59.5	59.5	60	45.6	1	5	248	0.00	30.216 
02:35	59.6	59.6	59.6	60	45.7	0	3	248	0.00	30.216 
02:40	59.5	59.5	59.5	60	45.6	1	5	248	0.00	30.216 
02:45	59.5	59.5	59.5	60	45.6	1	4	248	0.00	30.220 
02:50	59.6	59.6	59.6	60	45.7	1	3	248	0.00	30.220 
02:55	59.6	59.6	59.6	60	45.7	1	6	270	0.00	30.220 
03:00	59.6	59.6	59.6	60	45.7	1	7	270	0.00	30.219 
03:05	59.6	59.6	59.6	60	45.7	1	4	68	0.00	30.219 
03:10	59.8	59.8	59.8	60	45.9	2	5	248	0.00	30.219 
03:15	59.8	59.8	59.8	60	45.9	1	7	338	0.00	30.210 
03:20	59.8	59.8	59.8	60	45.9	2	6	90	0.00	30.210 
03:25	59.8	59.8	59.8	60	45.9	1	3	248	0.00	30.210 
03:30	59.6	59.6	59.6	61	46.1	1	7	270	0.00	30.209 
03:35	59.6	59.6	59.6	61	46.1	1	4	248	0.00	30.209 
03:40	59.6	59.6	59.6	61	46.1	0	3	248	0.00	30.209 
03:45	59.5	59.5	59.5	62	46.5	1	4	248	0.00	30.208 
03:50	59.5	59.5	59.5	62	46.5	1	3	248	0.00	30.208 
03:55	59.5	59.5	59.5	62	46.5	1	3	248	0.00	30.208 
04:00	59.3	59.3	59.3	62	46.3	0	3	248	0.00	30.209 
04:05	59.3	59.3	59.3	62	46.3	1	5	248	0.00	30.209 
04:10	59.2	59.2	59.2	63	46.6	1	7	248	0.00	30.209 
04:15	59.2	59.2	59.2	63	46.6	1	5	248	0.00	30.207 
04:20	59.2	59.2	59.2	63	46.6	1	3	248	0.00	30.207 
04:25	59.0	59.0	59.0	63	46.4	1	4	315	0.00	30.207 
04:30	59.0	59.0	59.0	63	46.4	1	10	248	0.00	30.206 
04:35	59.0	59.0	59.0	63	46.4	1	5	248	0.00	30.206 
04:40	59.0	59.0	59.0	65	47.2	1	3	248	0.00	30.206 
04:45	58.7	58.7	58.7	69	48.6	1	5	248	0.00	30.212 
04:50	58.0	58.0	58.0	72	49.0	0	2	248	0.02	30.212 
04:55	57.2	57.2	57.2	74	49.0	0	1	248	0.00	30.212 
05:00	56.7	56.7	56.7	77	49.6	0	1	248	0.00	30.214 
05:05	56.3	56.3	56.3	78	49.5	0	1	248	0.00	30.214 
05:10	56.2	56.2	56.2	79	49.8	0	1	248	0.00	30.214 
05:15	55.9	55.9	55.9	79	49.5	0	1	248	0.00	30.214 
05:20	55.9	55.9	55.9	80	49.8	0	2	248	0.01	30.214 
05:25	55.9	55.9	55.9	80	49.8	0	2	248	0.00	30.214 
05:30	55.7	55.7	55.7	80	49.6	0	1	248	0.00	30.220 
05:35	55.7	55.7	55.7	81	50.0	0	2	248	0.01	30.220 
05:40	55.7	55.7	55.7	82	50.3	0	1	248	0.01	30.220 
05:45	55.4	55.4	55.4	83	50.3	0	1	248	0.01	30.223 
05:50	55.3	55.3	55.3	84	50.5	0	2	248	0.02	30.223 
05:55	55.1	55.1	55.1	85	50.7	0	1	248	0.02	30.223 
06:00	54.8	54.8	54.8	85	50.4	0	5	90	0.01	30.214 
06:05	54.7	54.7	54.7	86	50.6	0	2	90	0.00	30.214 
06:10	54.5	54.5	54.5	87	50.7	0	3	68	0.00	30.214 
06:15	54.5	54.5	54.5	87	50.7	0	2	68	0.00	30.216 
06:20	54.4	54.4	54.4	87	50.6	0	2	68	0.00	30.216 
06:25	54.4	54.4	54.4	87	50.6	0	4	68	0.00	30.216 
06:30	54.4	54.4	54.4	87	50.6	0	1	68	0.00	30.218 
06:35	54.4	54.4	54.4	87	50.6	0	2	68	0.00	30.218 
06:40	54.4	54.4	54.4	87	50.6	0	3	68	0.00	30.218 
06:45	54.2	54.2	54.2	87	50.4	0	1	68	0.01	30.217 
06:50	54.2	54.2	54.2	87	50.4	0	2	68	0.00	30.217 
06:55	54.4	54.4	54.4	87	50.6	1	5	68	0.01	30.217 
07:00	54.4	54.4	54.4	87	50.6	1	3	338	0.00	30.216 
07:05	54.4	54.4	54.4	87	50.6	1	3	45	0.00	30.216 
07:10	54.4	54.4	54.4	87	50.6	0	2	270	0.01	30.216 
07:15	54.4	54.4	54.4	88	50.9	0	2	270	0.00	30.215 
07:20	54.4	54.4	54.4	88	50.9	0	2	270	0.00	30.215 
07:25	54.2	54.2	54.2	88	50.7	0	2	270	0.01	30.215 
07:30	54.2	54.2	54.2	88	50.7	0	3	270	0.00	30.212 
07:35	54.2	54.2	54.2	88	50.7	1	6	68	0.00	30.212 
07:40	54.4	54.4	54.4	87	50.6	1	3	112	0.00	30.212 
07:45	54.4	54.4	54.4	87	50.6	1	3	90	0.00	30.211 
07:50	54.5	54.5	54.5	87	50.7	0	3	90	0.00	30.211 
07:55	54.5	54.5	54.5	87	50.7	1	3	270	0.00	30.211 
08:00	54.5	54.5	54.5	87	50.7	0	2	292	0.00	30.211 
08:05	54.5	54.5	54.5	87	50.7	0	3	248	0.00	30.211 
08:10	54.7	54.7	54.7	87	50.9	1	2	270	0.00	30.211 
08:15	54.7	54.7	54.7	87	50.9	0	3	270	0.00	30.208 
08:20	54.7	54.7	54.7	86	50.6	1	3	270	0.00	30.208 
08:25	54.8	54.8	54.8	86	50.7	1	4	270	0.01	30.208 
08:30	54.8	54.8	54.8	86	50.7	1	3	225	0.00	30.207 
08:35	55.0	55.0	55.0	86	50.9	1	3	270	0.00	30.207 
08:40	55.0	55.0	55.0	87	51.2	1	3	248	0.00	30.207 
08:45	54.8	54.8	54.8	87	51.0	1	3	248	0.01	30.214 
08:50	54.8	54.8	54.8	87	51.0	0	2	270	0.00	30.214 
08:55	54.8	54.8	54.8	88	51.3	0	2	270	0.00	30.214 
09:00	55.0	55.0	55.0	88	51.5	1	4	248	0.00	30.214 
09:05	55.0	55.0	55.0	88	51.5	1	3	248	0.01	30.214 
09:10	55.0	55.0	55.0	88	51.5	1	2	248	0.00	30.214 
09:15	55.1	55.1	55.1	88	51.6	1	4	248	0.00	30.214 
09:20	55.1	55.1	55.1	88	51.6	1	4	248	0.00	30.214 
09:25	55.1	55.1	55.1	88	51.6	1	3	248	0.00	30.214 
09:30	55.3	55.3	55.3	88	51.8	1	4	248	0.00	30.217 
09:35	55.3	55.3	55.3	88	51.8	1	3	248	0.01	30.217 
09:40	55.3	55.3	55.3	88	51.8	1	4	248	0.00	30.217 
09:45	55.3	55.3	55.3	89	52.1	0	3	248	0.01	30.219 
09:50	55.3	55.3	55.3	89	52.1	1	5	248	0.00	30.219 
09:55	55.3	55.3	55.3	89	52.1	1	5	248	0.00	30.219 
10:00	55.3	55.3	55.3	90	52.4	1	4	248	0.01	30.216 
10:05	55.3	55.3	55.3	90	52.4	1	5	248	0.00	30.216 
10:10	55.3	55.3	55.3	90	52.4	1	6	248	0.00	30.216 
10:15	55.3	55.3	55.3	91	52.7	1	5	248	0.01	30.217 
10:20	55.3	55.3	55.3	91	52.7	1	4	248	0.00	30.217 
10:25	55.3	55.3	55.3	91	52.7	0	2	248	0.00	30.217 
10:30	55.3	55.3	55.3	91	52.7	1	3	225	0.00	30.222 
10:35	55.4	55.4	55.4	91	52.8	0	2	248	0.00	30.222 
10:40	55.4	55.4	55.4	91	52.8	1	3	248	0.00	30.222 
10:45	55.4	55.4	55.4	91	52.8	0	2	248	0.00	30.229 
10:50	55.4	55.4	55.4	92	53.1	1	3	248	0.01	30.229 
10:55	55.4	55.4	55.4	92	53.1	1	5	248	0.00	30.229 
11:00	55.4	55.4	55.4	92	53.1	0	2	248	0.01	30.226 
11:05	55.6	55.6	55.6	92	53.3	1	3	248	0.00	30.226 
11:10	55.6	55.6	55.6	92	53.3	0	2	248	0.00	30.226 
11:15	55.6	55.6	55.6	92	53.3	1	6	248	0.01	30.219 
11:20	55.6	55.6	55.6	92	53.3	1	4	248	0.00	30.219 
11:25	55.6	55.6	55.6	92	53.3	0	2	248	0.01	30.219 
11:30	55.6	55.6	55.6	92	53.3	0	2	248	0.01	30.221 
11:35	55.6	55.6	55.6	92	53.3	0	3	248	0.00	30.221 
11:40	55.6	55.6	55.6	92	53.3	0	2	248	0.01	30.221 
11:45	55.6	55.6	55.6	93	53.6	0	1	248	0.01	30.221 
11:50	55.7	55.7	55.7	93	53.7	0	3	248	0.00	30.221 
11:55	55.7	55.7	55.7	93	53.7	1	3	248	0.01	30.221 
12:00	55.7	55.7	55.7	93	53.7	1	3	248	0.01	30.219 
12:05	55.7	55.7	55.7	93	53.7	0	1	248	0.00	30.219 
12:10	55.7	55.7	55.7	93	53.7	0	4	248	0.01	30.219 
12:15	55.7	55.7	55.7	93	53.7	0	3	248	0.00	30.218 
12:20	55.7	55.7	55.7	93	53.7	1	4	248	0.00	30.218 
12:25	55.7	55.7	55.7	93	53.7	0	3	248	0.01	30.218 
12:30	55.7	55.7	55.7	93	53.7	0	3	248	0.00	30.216 
12:35	55.7	55.7	55.7	94	54.0	0	1	248	0.00	30.216 
12:40	55.9	55.9	55.9	94	54.2	0	2	248	0.00	30.216 
12:45	55.9	55.9	55.9	94	54.2	0	3	248	0.00	30.212 
12:50	55.9	55.9	55.9	94	54.2	0	1	248	0.01	30.212 
12:55	56.0	56.0	56.0	94	54.3	0	2	248	0.00	30.212 
13:00	56.0	56.0	56.0	94	54.3	0	1	248	0.00	30.199 
13:05	56.0	56.0	56.0	94	54.3	0	1	248	0.00	30.199 
13:10	56.0	56.0	56.0	94	54.3	0	1	248	0.00	30.199 
13:15	56.0	56.0	56.0	94	54.3	0	1	248	0.01	30.196 
13:20	56.0	56.0	56.0	94	54.3	0	1	248	0.00	30.196 
13:25	56.0	56.0	56.0	94	54.3	0	1	248	0.00	30.196 
13:30	55.9	55.9	55.9	94	54.2	0	1	248	0.00	30.194 
13:35	55.7	55.7	55.7	94	54.0	0	2	248	0.00	30.194 
13:40	55.3	55.3	55.3	94	53.6	0	2	248	0.01	30.194 
13:45	54.8	54.8	54.8	94	53.1	0	1	248	0.00	30.190 
13:50	54.5	54.5	54.5	94	52.8	0	2	248	0.00	30.190 
13:55	54.4	54.4	54.4	94	52.7	0	0	---	0.00	30.190 
14:00	54.1	54.1	54.1	94	52.4	1	4	248	0.00	30.189 
14:05	52.9	52.9	52.9	93	50.9	1	4	248	0.01	30.189 
14:10	52.5	52.5	52.5	94	50.8	0	3	248	0.00	30.189 
14:15	52.3	52.3	52.3	94	50.6	0	2	248	0.00	30.195 
14:20	52.2	52.2	52.2	94	50.5	0	4	248	0.00	30.195 
14:25	52.2	52.2	52.2	94	50.5	0	1	248	0.00	30.195 
14:30	52.0	52.0	52.0	94	50.3	0	2	248	0.00	30.188 
14:35	51.7	51.7	51.7	94	50.0	0	2	248	0.00	30.188 
14:40	51.4	51.4	51.4	94	49.7	0	2	248	0.00	30.188 
14:45	51.1	51.1	51.1	94	49.4	1	4	248	0.01	30.201 
14:50	50.8	50.8	50.8	94	49.1	0	3	270	0.00	30.201 
14:55	50.5	50.5	50.5	94	48.8	0	2	270	0.01	30.201 
15:00	50.5	50.5	50.5	94	48.8	0	2	270	0.00	30.209 
15:05	50.4	50.4	50.4	94	48.7	0	2	270	0.01	30.209 
15:10	50.4	50.4	50.4	94	48.7	0	2	270	0.01	30.209 
15:15	50.2	50.2	50.2	94	48.5	1	2	270	0.01	30.210 
15:20	50.1	50.1	50.1	94	48.4	0	2	270	0.01	30.210 
15:25	49.9	49.9	49.9	94	48.2	0	2	270	0.01	30.210 
15:30	49.8	49.8	49.8	94	48.1	0	2	270	0.01	30.204 
15:35	49.8	49.8	49.8	94	48.1	0	1	270	0.00	30.204 
15:40	49.6	49.6	49.6	94	47.9	0	3	270	0.01	30.204 
15:45	49.6	49.6	49.6	94	47.9	0	1	270	0.00	30.213 
15:50	49.6	49.6	49.6	94	47.9	1	4	270	0.01	30.213 
15:55	49.6	49.6	49.6	94	47.9	0	2	270	0.00	30.213 
16:00	49.5	49.5	49.5	94	47.8	0	2	270	0.00	30.218 
16:05	49.4	49.4	49.4	94	47.7	0	3	270	0.00	30.218 
16:10	49.2	49.2	49.2	94	47.5	0	1	270	0.01	30.218 
16:15	49.1	49.1	49.1	94	47.4	0	3	270	0.00	30.224 
16:20	49.1	49.1	49.1	94	47.4	0	2	270	0.01	30.224 
16:25	48.9	48.9	48.9	94	47.2	0	2	270	0.00	30.224 
16:30	48.8	48.8	48.8	94	47.1	0	2	270	0.01	30.231 
16:35	48.6	48.6	48.6	94	47.0	1	3	292	0.00	30.231 
16:40	48.2	48.2	48.2	94	46.6	0	2	315	0.00	30.231 
16:45	47.9	47.9	47.9	94	46.3	0	3	315	0.01	30.240 
16:50	47.6	47.6	47.6	94	46.0	1	3	270	0.00	30.240 
16:55	47.1	47.1	47.1	94	45.5	1	4	270	0.00	30.240 
17:00	47.0	47.0	47.0	94	45.4	0	5	270	0.01	30.249 
17:05	46.7	46.7	46.7	94	45.1	0	3	270	0.00	30.249 
17:10	46.5	46.5	46.5	94	44.9	0	4	270	0.01	30.249 
17:15	46.4	46.4	46.4	94	44.8	1	4	292	0.00	30.257 
17:20	45.8	45.8	45.8	94	44.2	1	5	292	0.00	30.257 
17:25	45.1	45.1	45.1	93	43.2	1	4	315	0.00	30.257 
17:30	44.8	44.8	44.8	93	42.9	1	5	338	0.01	30.261 
17:35	44.3	44.3	44.3	93	42.4	1	4	315	0.00	30.261 
17:40	44.2	44.2	44.2	93	42.3	0	3	315	0.00	30.261 
17:45	43.9	43.9	43.9	93	42.0	1	3	338	0.01	30.270 
17:50	43.6	43.6	43.6	93	41.7	0	3	338	0.00	30.270 
17:55	43.5	43.5	43.5	93	41.6	0	4	338	0.00	30.270 
18:00	43.3	43.3	43.3	93	41.4	0	4	270	0.00	30.275 
18:05	43.3	43.3	43.3	94	41.7	0	3	270	0.00	30.275 
18:10	43.3	43.3	43.3	94	41.7	1	3	0	0.01	30.275 
18:15	43.3	43.3	43.3	94	41.7	0	3	0	0.00	30.280 
18:20	43.3	43.3	43.3	94	41.7	0	2	0	0.00	30.280 
18:25	43.2	43.2	43.2	94	41.6	0	1	0	0.01	30.280 
18:30	43.2	43.2	43.2	94	41.6	0	2	0	0.00	30.284 
18:35	43.1	43.1	43.1	94	41.5	0	3	0	0.01	30.284 
18:40	42.9	42.9	42.9	94	41.3	0	1	0	0.00	30.284 
18:45	42.9	42.9	42.9	94	41.3	0	2	0	0.00	30.291 
18:50	42.8	42.8	42.8	94	41.2	1	4	22	0.00	30.291 
18:55	42.6	42.6	42.6	94	41.0	0	4	112	0.00	30.291 
19:00	42.5	42.5	42.5	94	40.9	0	3	90	0.01	30.292 
19:05	42.5	42.5	42.5	94	40.9	0	1	90	0.00	30.292 
19:10	42.5	42.5	42.5	94	40.9	0	3	112	0.01	30.292 
19:15	42.3	42.3	42.3	94	40.7	0	2	112	0.01	30.294 
19:20	42.3	42.3	42.3	94	40.7	0	2	112	0.00	30.294 
19:25	42.3	42.3	42.3	94	40.7	0	1	112	0.01	30.294 
19:30	42.2	42.2	42.2	94	40.6	0	5	112	0.00	30.295 
19:35	42.1	42.1	42.1	94	40.5	1	5	112	0.00	30.295 
19:40	42.1	42.1	42.1	94	40.5	0	2	68	0.01	30.295 
19:45	41.9	41.9	41.9	94	40.3	0	3	68	0.00	30.304 
19:50	41.9	41.9	41.9	94	40.3	0	2	45	0.00	30.304 
19:55	41.8	41.8	41.8	94	40.2	0	3	45	0.00	30.304 
20:00	41.8	41.8	41.8	94	40.2	0	3	22	0.00	30.308 
20:05	41.6	41.6	41.6	94	40.0	0	2	22	0.01	30.308 
20:10	41.5	41.5	41.5	94	39.9	0	2	22	0.00	30.308 
20:15	41.5	41.5	41.5	94	39.9	0	3	0	0.00	30.308 
20:20	41.3	41.3	41.3	94	39.7	0	2	338	0.00	30.308 
20:25	41.2	41.2	41.2	94	39.6	1	3	338	0.01	30.308 
20:30	41.2	41.2	41.2	94	39.6	0	3	45	0.00	30.306 
20:35	41.2	41.2	41.2	94	39.6	0	2	45	0.00	30.306 
20:40	41.2	41.2	41.2	94	39.6	1	5	338	0.00	30.306 
20:45	41.1	41.1	41.1	94	39.5	1	5	90	0.01	30.305 
20:50	41.1	41.1	41.1	94	39.5	1	3	45	0.00	30.305 
20:55	40.9	40.9	40.9	94	39.3	1	5	68	0.00	30.305 
21:00	40.9	40.9	40.9	94	39.3	0	3	68	0.00	30.303 
21:05	40.9	40.9	40.9	94	39.3	1	4	22	0.01	30.303 
21:10	40.9	40.9	40.9	94	39.3	0	4	45	0.00	30.303 
21:15	40.8	40.8	40.8	94	39.2	0	3	45	0.00	30.303 
21:20	40.9	40.9	40.9	94	39.3	0	1	45	0.00	30.303 
21:25	40.9	40.9	40.9	94	39.3	1	5	112	0.01	30.303 
21:30	40.8	40.8	40.8	94	39.2	1	4	112	0.00	30.296 
21:35	40.8	40.8	40.8	94	39.2	1	3	45	0.00	30.296 
21:40	40.6	40.6	40.6	94	39.0	1	8	45	0.00	30.296 
21:45	40.6	40.6	40.6	94	39.0	1	3	0	0.00	30.295 
21:50	40.5	40.5	40.5	93	38.6	0	4	90	0.00	30.295 
21:55	40.2	40.2	40.2	93	38.3	1	5	68	0.01	30.295 
22:00	39.9	39.9	39.9	93	38.0	1	4	90	0.00	30.300 
22:05	39.9	39.9	39.9	93	38.0	0	2	45	0.00	30.300 
22:10	39.8	39.8	39.8	93	37.9	1	3	45	0.00	30.300 
22:15	39.6	39.6	39.6	93	37.7	1	4	45	0.00	30.303 
22:20	39.5	39.5	39.5	93	37.6	1	4	45	0.01	30.303 
22:25	39.2	39.2	39.2	93	37.3	1	4	45	0.00	30.303 
22:30	39.1	39.1	39.1	93	37.2	1	3	22	0.00	30.306 
22:35	38.9	38.9	38.9	93	37.1	1	3	22	0.00	30.306 
22:40	38.9	38.9	38.9	93	37.1	1	4	45	0.00	30.306 
22:45	38.8	38.8	38.8	93	37.0	1	5	45	0.01	30.299 
22:50	38.8	38.8	38.8	93	37.0	1	3	45	0.00	30.299 
22:55	38.8	38.8	38.8	93	37.0	1	3	45	0.00	30.299 
23:00	38.8	38.8	38.8	93	37.0	0	2	45	0.00	30.298 
23:05	38.8	38.8	38.8	93	37.0	0	2	45	0.00	30.298 
23:10	38.6	38.6	38.6	93	36.8	2	6	112	0.00	30.298 
23:15	38.5	38.5	38.5	93	36.7	1	4	22	0.00	30.295 
23:20	38.5	38.5	38.5	93	36.7	0	4	45	0.00	30.295 
23:25	38.5	38.5	38.5	93	36.7	1	3	90	0.01	30.295 
23:30	38.5	38.5	38.5	93	36.7	1	3	68	0.00	30.293 
23:35	38.5	38.5	38.5	93	36.7	1	3	45	0.00	30.293 
23:40	38.5	38.5	38.5	93	36.7	1	4	45	0.00	30.293 
23:45	38.3	38.3	38.3	93	36.5	0	2	45	0.00	30.295 
23:50	38.3	38.3	38.3	93	36.5	1	3	45	0.00	30.295 
23:55	38.3	38.3	38.3	93	36.5	1	9	90	0.00	30.295 

CoCoRaHS
IN-AL-39
A2 Web Hosting
Creative Commons License
GoDaddy
search engine by freefind advanced

loaded 2018-11-17 19:08:01 • last modified 2010-11-18 10:43:29
Privacy PolicyDisclaimer
• wx.awcolley.com is powered by PmWiki v.2002016 •
• all content (unless otherwise noted) © 2018 A W Colley